Weather History for Provincetown, MA

Change the Weather History Date:

Saturday, February 22, 2014

  Actual Average Record
Temperature  
Mean Temperature 40 °F -  
Max Temperature 48 °F 36 °F 52 °F (1954)
Min Temperature 33 °F 26 °F 15 °F (1956)
Degree Days  
Heating Degree Days 24    
Moisture  
Dew Point 32 °F    
Average Humidity 75    
Maximum Humidity 100    
Minimum Humidity 46    
Precipitation  
Precipitation 0.29 in - - ()
Sea Level Pressure  
Sea Level Pressure 29.95 in    
Wind  
Wind Speed 12 mph (SW)    
Max Wind Speed 26 mph    
Max Gust Speed 34 mph    
Visibility 10 miles    
Events      
Averages and records for this station are not official NWS values.
T = Trace of Precipitation, MM = Missing Value Source: NWS Daily Summary

Daily Weather History Graph

Daily Weather History Graph

Search for Another Location

Airport:

Trip Planner

Search our weather history database for the weather conditions in past years. The results will help you decide how hot, cold, wet, or windy it might be!

Date:

Astronomy

Feb. 22, 2014 Rise Set
Actual Time 6:26 AM EST 5:22 PM EST
Civil Twilight 5:58 AM EST 5:50 PM EST
Nautical Twilight 5:26 AM EST 6:23 PM EST
Astronomical Twilight 4:53 AM EST 6:55 PM EST
Moon 12:21 AM EST (2/22) 10:28 AM EST (2/22)
Length of Visible Light 11h 52m
Length of Day
10h 55m
Waning Gibbous, 50% of the Moon is Illuminated
Feb 22
Waning Gibbous
Feb 22
Last Quarter
Mar 1
New
Mar 8
First Quarter
Mar 16
Full

Hourly Weather History & Observations

Time (EST) Temp. Windchill Dew Point Humidity Pressure Visibility Wind Dir Wind Speed Gust Speed Precip Events Conditions
12:15 AM 39.2 °F 33.0 °F 35.6 °F 87% 29.86 in 10.0 mi WNW 9.2 mph - N/A   Clear
12:35 AM 37.4 °F 31.4 °F 35.6 °F 93% 29.86 in 10.0 mi West 8.1 mph - N/A   Clear
12:55 AM 37.4 °F 31.4 °F 35.6 °F 93% 29.87 in 10.0 mi West 8.1 mph - 0.01 in   Clear
1:15 AM 37.4 °F 30.8 °F 35.6 °F 93% 29.87 in 10.0 mi West 9.2 mph - N/A   Clear
1:35 AM 37.4 °F 30.8 °F 35.6 °F 93% 29.89 in 10.0 mi West 9.2 mph - N/A   Clear
1:55 AM 37.4 °F 30.8 °F 35.6 °F 93% 29.89 in 10.0 mi West 9.2 mph - N/A   Clear
2:15 AM 37.4 °F 30.3 °F 35.6 °F 93% 29.89 in 10.0 mi WSW 10.4 mph - N/A   Clear
2:35 AM 37.4 °F 30.3 °F 35.6 °F 93% 29.89 in 10.0 mi WSW 10.4 mph - N/A   Clear
2:55 AM 37.4 °F 30.8 °F 33.8 °F 87% 29.89 in 10.0 mi WSW 9.2 mph - N/A   Clear
3:15 AM 37.4 °F 30.8 °F 35.6 °F 93% 29.90 in 10.0 mi WSW 9.2 mph - 0.01 in   Clear
3:35 AM 35.6 °F 28.6 °F 33.8 °F 93% 29.91 in 10.0 mi WSW 9.2 mph - 0.02 in   Clear
3:55 AM 35.6 °F 28.6 °F 33.8 °F 93% 29.92 in 10.0 mi WSW 9.2 mph - 0.03 in   Clear
4:15 AM 35.6 °F 28.6 °F 35.6 °F 100% 29.92 in 10.0 mi WSW 9.2 mph - 0.02 in   Clear
4:35 AM 35.6 °F 28.6 °F 33.8 °F 93% 29.92 in 10.0 mi WSW 9.2 mph - 0.05 in   Clear
4:55 AM 35.6 °F 29.2 °F 33.8 °F 93% 29.93 in 10.0 mi WSW 8.1 mph - 0.06 in   Clear
5:15 AM 35.6 °F 29.9 °F 33.8 °F 93% 29.93 in 10.0 mi SW 6.9 mph - 0.02 in   Clear
5:35 AM 35.6 °F 29.2 °F 33.8 °F 93% 29.94 in 10.0 mi SW 8.1 mph - 0.03 in   Clear
5:55 AM 35.6 °F 29.9 °F 33.8 °F 93% 29.95 in 10.0 mi SW 6.9 mph - 0.03 in   Clear
6:15 AM 33.8 °F 27.0 °F 33.8 °F 100% 29.95 in 10.0 mi WSW 8.1 mph - 0.01 in   Clear
6:35 AM 35.6 °F 27.1 °F 33.8 °F 93% 29.95 in 10.0 mi WSW 12.7 mph - 0.02 in   Clear
6:55 AM 35.6 °F 28.0 °F 33.8 °F 93% 29.96 in 10.0 mi WSW 10.4 mph - 0.03 in   Clear
7:15 AM 37.4 °F 30.3 °F 35.6 °F 93% 29.97 in 10.0 mi WSW 10.4 mph - N/A   Clear
7:35 AM 37.4 °F 30.3 °F 33.8 °F 87% 29.98 in 10.0 mi WSW 10.4 mph - N/A   Clear
7:55 AM 37.4 °F 30.3 °F 33.8 °F 87% 29.99 in 10.0 mi WSW 10.4 mph - N/A   Clear
8:15 AM 39.2 °F 31.6 °F 35.6 °F 87% 30.00 in 10.0 mi West 12.7 mph - N/A   Clear
8:35 AM 39.2 °F 31.6 °F 33.8 °F 81% 30.00 in 10.0 mi WSW 12.7 mph - N/A   Clear
8:55 AM 39.2 °F 31.6 °F 33.8 °F 81% 30.00 in 10.0 mi WSW 12.7 mph - N/A   Clear
9:15 AM 41.0 °F 33.9 °F 33.8 °F 76% 30.00 in 10.0 mi WSW 12.7 mph - 0.01 in   Clear
9:35 AM 42.8 °F 36.2 °F 35.6 °F 76% 30.00 in 10.0 mi WSW 12.7 mph - 0.01 in   Clear
9:55 AM 42.8 °F 36.2 °F 35.6 °F 76% 30.00 in 10.0 mi WSW 12.7 mph - 0.01 in   Clear
10:15 AM 44.6 °F 38.4 °F 35.6 °F 71% 30.00 in 10.0 mi SW 12.7 mph - 0.01 in   Clear
10:35 AM 44.6 °F 37.8 °F 35.6 °F 71% 30.00 in 10.0 mi SW 15.0 mph - 0.02 in   Clear
10:55 AM 46.4 °F 40.7 °F 35.6 °F 66% 30.00 in 10.0 mi SW 12.7 mph - 0.02 in   Clear
11:15 AM 46.4 °F 40.7 °F 33.8 °F 62% 29.99 in 10.0 mi SW 12.7 mph - N/A   Clear
11:35 AM 46.4 °F 40.4 °F 33.8 °F 62% 29.98 in 10.0 mi SW 13.8 mph - N/A   Clear
11:55 AM 48.2 °F - 33.8 °F 58% 29.98 in 10.0 mi SW 13.8 mph - N/A   Clear
12:15 PM 48.2 °F - 33.8 °F 58% 29.97 in 10.0 mi SSW 13.8 mph 19.6 mph 0.01 in   Clear
12:35 PM 48.2 °F - 32.0 °F 54% 29.96 in 10.0 mi SSW 15.0 mph 21.9 mph 0.01 in   Clear
12:55 PM 48.2 °F - 30.2 °F 50% 29.94 in 10.0 mi SSW 16.1 mph 21.9 mph 0.01 in   Clear
1:15 PM 48.2 °F - 30.2 °F 50% 29.93 in 10.0 mi SSW 17.3 mph 21.9 mph N/A   Clear
1:35 PM 48.2 °F - 28.4 °F 46% 29.92 in 10.0 mi SSW 17.3 mph 24.2 mph N/A   Clear
1:55 PM 46.4 °F 39.2 °F 28.4 °F 50% 29.91 in 10.0 mi SSW 18.4 mph 24.2 mph N/A   Clear
2:15 PM 46.4 °F 39.5 °F 28.4 °F 50% 29.92 in 10.0 mi SSW 17.3 mph 23.0 mph N/A   Clear
2:35 PM 44.6 °F 36.6 °F 28.4 °F 53% 29.92 in 10.0 mi SW 19.6 mph 26.5 mph N/A   Clear
2:55 PM 44.6 °F 36.4 °F 28.4 °F 53% 29.92 in 10.0 mi SW 20.7 mph 26.5 mph 0.01 in   Clear
3:15 PM 44.6 °F 36.1 °F 26.6 °F 49% 29.91 in 10.0 mi SSW 21.9 mph 27.6 mph N/A   Clear
3:35 PM 44.6 °F 36.6 °F 26.6 °F 49% 29.90 in 10.0 mi SW 19.6 mph 26.5 mph N/A   Clear
3:55 PM 42.8 °F 33.8 °F 26.6 °F 53% 29.90 in 10.0 mi SW 21.9 mph 26.5 mph 0.01 in   Clear
4:15 PM 42.8 °F 33.5 °F 26.6 °F 53% 29.91 in 10.0 mi SW 23.0 mph 27.6 mph N/A   Clear
4:35 PM 42.8 °F 32.9 °F 26.6 °F 53% 29.92 in 10.0 mi SW 26.5 mph 34.5 mph 0.01 in   Clear
4:55 PM 41.0 °F 31.1 °F 28.4 °F 61% 29.92 in 10.0 mi SW 23.0 mph 31.1 mph 0.01 in   Clear
5:15 PM 39.2 °F 29.6 °F 28.4 °F 65% 29.93 in 10.0 mi SW 19.6 mph 27.6 mph N/A   Clear
5:35 PM 39.2 °F 29.3 °F 28.4 °F 65% 29.94 in 10.0 mi SW 20.7 mph - 0.01 in   Clear
5:55 PM 39.2 °F 29.8 °F 30.2 °F 70% 29.95 in 10.0 mi SW 18.4 mph - 0.01 in   Clear
6:15 PM 39.2 °F 30.8 °F 28.4 °F 65% 29.95 in 10.0 mi SW 15.0 mph - N/A   Clear
6:35 PM 39.2 °F 30.5 °F 30.2 °F 70% 29.95 in 10.0 mi SW 16.1 mph - N/A   Clear
6:55 PM 39.2 °F 29.8 °F 30.2 °F 70% 29.96 in 10.0 mi SW 18.4 mph 25.3 mph 0.02 in   Clear
7:15 PM 39.2 °F 29.8 °F 30.2 °F 70% 29.96 in 10.0 mi SW 18.4 mph 24.2 mph N/A   Clear
7:35 PM 39.2 °F 30.2 °F 30.2 °F 70% 29.96 in 10.0 mi SW 17.3 mph 24.2 mph 0.01 in   Clear
7:55 PM 39.2 °F 29.8 °F 32.0 °F 75% 29.96 in 10.0 mi SW 18.4 mph - 0.01 in   Clear
8:15 PM 39.2 °F 30.2 °F 30.2 °F 70% 29.97 in 10.0 mi SW 17.3 mph - N/A   Clear
8:35 PM 39.2 °F 30.5 °F 30.2 °F 70% 29.97 in 10.0 mi SW 16.1 mph 21.9 mph N/A   Clear
8:55 PM 39.2 °F 30.5 °F 32.0 °F 75% 29.96 in 10.0 mi SW 16.1 mph 23.0 mph N/A   Clear
9:15 PM 39.2 °F 30.2 °F 30.2 °F 70% 29.98 in 10.0 mi SW 17.3 mph - 0.01 in   Clear
9:35 PM 39.2 °F 29.8 °F 32.0 °F 75% 29.98 in 10.0 mi SW 18.4 mph 24.2 mph 0.01 in   Clear
9:55 PM 37.4 °F 27.5 °F 30.2 °F 75% 29.97 in 10.0 mi SW 18.4 mph 23.0 mph 0.01 in   Clear
10:15 PM 37.4 °F 27.8 °F 32.0 °F 81% 29.98 in 10.0 mi SW 17.3 mph 21.9 mph N/A   Clear
10:35 PM 39.2 °F 30.2 °F 30.2 °F 70% 29.97 in 10.0 mi SW 17.3 mph 21.9 mph N/A   Clear
10:55 PM 37.4 °F 27.5 °F 30.2 °F 75% 29.98 in 10.0 mi SW 18.4 mph 23.0 mph 0.01 in   Clear
11:15 PM 37.4 °F 28.2 °F 32.0 °F 81% 29.98 in 10.0 mi SW 16.1 mph - N/A   Clear
11:35 PM 37.4 °F 28.2 °F 30.2 °F 75% 29.98 in 10.0 mi SW 16.1 mph 20.7 mph N/A   Clear
11:55 PM 37.4 °F 28.2 °F 30.2 °F 75% 29.99 in 10.0 mi SW 16.1 mph 19.6 mph N/A   Clear